createdAt,value
2018-06-30T00:00:05.960Z,56.90
2018-06-30T00:02:35.700Z,56.31
2018-06-30T00:05:05.434Z,57.92
2018-06-30T00:07:35.148Z,58.32
2018-06-30T00:10:04.985Z,58.80
2018-06-30T00:12:34.840Z,60.23
2018-06-30T00:15:04.614Z,61.00
2018-06-30T00:17:34.622Z,61.63
2018-06-30T00:20:04.454Z,61.67
2018-06-30T00:22:34.153Z,60.91
2018-06-30T00:25:03.790Z,62.39
2018-06-30T00:27:33.446Z,59.53
2018-06-30T00:30:03.138Z,58.14
2018-06-30T00:32:32.754Z,58.06
2018-06-30T00:35:02.457Z,58.08
2018-06-30T00:37:32.247Z,57.44
2018-06-30T00:40:02.379Z,58.45
2018-06-30T00:42:32.158Z,59.11
2018-06-30T00:45:01.830Z,59.00
2018-06-30T00:47:31.498Z,60.01
2018-06-30T00:50:01.163Z,60.68
2018-06-30T00:52:31.009Z,59.99
2018-06-30T00:55:00.742Z,61.10
2018-06-30T00:57:30.422Z,60.85
2018-06-30T01:00:00.114Z,61.20
2018-06-30T01:02:29.805Z,61.88
2018-06-30T01:04:59.515Z,61.21
2018-06-30T01:07:29.262Z,60.21
2018-06-30T01:09:58.910Z,58.11
2018-06-30T01:12:28.582Z,58.25
2018-06-30T01:14:57.901Z,59.77
2018-06-30T01:17:27.601Z,60.58
2018-06-30T01:19:57.297Z,61.93
2018-06-30T01:22:26.961Z,64.74
2018-06-30T01:24:56.933Z,64.19
2018-06-30T01:27:26.589Z,63.81
2018-06-30T01:29:56.249Z,64.09
2018-06-30T01:32:25.925Z,65.55
2018-06-30T01:34:55.593Z,65.48
2018-06-30T01:37:25.262Z,65.02
2018-06-30T01:39:55.362Z,64.23
2018-06-30T01:42:25.079Z,66.04
2018-06-30T01:44:54.733Z,64.13
2018-06-30T01:47:24.408Z,63.34
2018-06-30T01:49:54.097Z,62.60
2018-06-30T01:52:23.810Z,62.74
2018-06-30T01:54:53.522Z,62.63
2018-06-30T01:57:23.276Z,63.09
2018-06-30T01:59:53.074Z,63.68
2018-06-30T02:02:22.745Z,64.89
2018-06-30T02:04:52.486Z,63.32
2018-06-30T02:07:22.158Z,63.33
2018-06-30T02:09:51.782Z,64.34
2018-06-30T02:12:21.440Z,65.17
2018-06-30T02:14:51.051Z,65.01
2018-06-30T02:17:20.666Z,65.46
2018-06-30T02:19:50.342Z,66.36
2018-06-30T02:22:20.023Z,65.60
2018-06-30T02:24:50.176Z,65.35
2018-06-30T02:27:19.839Z,65.59
2018-06-30T02:29:49.478Z,66.52
2018-06-30T02:32:19.097Z,66.28
2018-06-30T02:34:48.782Z,67.61
2018-06-30T02:37:18.414Z,68.42
2018-06-30T02:39:48.034Z,68.53
2018-06-30T02:42:17.618Z,66.44
2018-06-30T02:44:47.238Z,67.41
2018-06-30T02:47:16.881Z,64.47
2018-06-30T02:49:46.518Z,62.94
2018-06-30T02:52:16.192Z,64.11
2018-06-30T02:54:46.178Z,64.52
2018-06-30T02:57:15.874Z,65.42
2018-06-30T02:59:45.801Z,67.72
2018-06-30T03:02:15.838Z,69.66
2018-06-30T03:04:45.478Z,69.77
2018-06-30T03:07:15.389Z,69.83
2018-06-30T03:09:44.987Z,71.09
2018-06-30T03:12:14.597Z,70.98
2018-06-30T03:14:44.162Z,70.96
2018-06-30T03:17:13.793Z,71.82
2018-06-30T03:19:43.645Z,70.02
2018-06-30T03:22:13.246Z,70.90
2018-06-30T03:24:42.847Z,71.11
2018-06-30T03:27:12.521Z,69.09
2018-06-30T03:29:42.138Z,68.60
2018-06-30T03:32:11.838Z,65.69
2018-06-30T03:34:41.094Z,67.12
2018-06-30T03:37:10.722Z,67.51
2018-06-30T03:39:40.317Z,68.48
2018-06-30T03:42:09.934Z,69.66
2018-06-30T03:44:39.539Z,69.87
2018-06-30T03:47:09.166Z,69.98
2018-06-30T03:49:38.778Z,69.29
2018-06-30T03:52:08.383Z,69.35
2018-06-30T03:54:37.697Z,68.64
2018-06-30T03:57:07.305Z,70.16
2018-06-30T03:59:36.613Z,71.13
2018-06-30T04:02:06.423Z,71.75
2018-06-30T04:04:36.021Z,72.62
2018-06-30T04:07:05.697Z,74.41
2018-06-30T04:09:35.289Z,74.72
2018-06-30T04:12:04.914Z,75.12
2018-06-30T04:14:34.542Z,74.40
2018-06-30T04:17:04.153Z,73.36
2018-06-30T04:19:33.751Z,74.17
2018-06-30T04:22:03.452Z,73.51
2018-06-30T04:24:33.041Z,74.46
2018-06-30T04:27:02.654Z,74.83
2018-06-30T04:29:32.294Z,74.67
2018-06-30T04:32:01.885Z,75.33
2018-06-30T04:34:31.544Z,75.58
2018-06-30T04:37:01.245Z,74.80
2018-06-30T04:39:30.841Z,75.56
2018-06-30T04:42:00.528Z,75.07
2018-06-30T04:44:30.170Z,73.58
2018-06-30T04:46:59.766Z,72.54
2018-06-30T04:49:29.424Z,73.17
2018-06-30T04:51:59.084Z,72.03
2018-06-30T04:54:28.749Z,72.24
2018-06-30T04:56:58.382Z,73.67
2018-06-30T04:59:28.054Z,74.35
2018-06-30T05:01:57.682Z,75.07
2018-06-30T05:04:27.398Z,75.42
2018-06-30T05:06:57.017Z,73.83
2018-06-30T05:09:26.677Z,74.32
2018-06-30T05:11:56.888Z,74.12
2018-06-30T05:14:26.576Z,74.28
2018-06-30T05:16:56.232Z,74.70
2018-06-30T05:19:25.909Z,74.63
2018-06-30T05:21:55.575Z,74.39
2018-06-30T05:24:25.270Z,74.21
2018-06-30T05:26:54.930Z,73.90
2018-06-30T05:29:24.652Z,74.90
2018-06-30T05:31:54.997Z,74.59
2018-06-30T05:34:24.932Z,72.82
2018-06-30T05:36:54.714Z,73.42
2018-06-30T05:39:24.434Z,74.43
2018-06-30T05:41:54.062Z,74.36
2018-06-30T05:44:23.693Z,73.07
2018-06-30T05:46:53.338Z,73.26
2018-06-30T05:49:22.961Z,73.60
2018-06-30T05:51:52.856Z,72.28
2018-06-30T05:54:22.734Z,72.97
2018-06-30T05:56:52.355Z,72.94
2018-06-30T05:59:22.052Z,71.74
2018-06-30T06:01:51.672Z,73.09
2018-06-30T06:04:21.305Z,71.42
2018-06-30T06:06:50.950Z,72.99
2018-06-30T06:09:20.538Z,73.04
2018-06-30T06:11:50.203Z,72.43
2018-06-30T06:14:19.813Z,72.59
2018-06-30T06:16:49.650Z,72.12
2018-06-30T06:19:19.246Z,71.91
2018-06-30T06:21:48.940Z,71.26
2018-06-30T06:24:18.547Z,70.79
2018-06-30T06:26:48.150Z,70.59
2018-06-30T06:29:17.754Z,70.21
2018-06-30T06:31:47.409Z,70.41
2018-06-30T06:34:17.030Z,70.63
2018-06-30T06:36:46.686Z,69.47
2018-06-30T06:39:16.319Z,70.34
2018-06-30T06:41:46.100Z,68.95
2018-06-30T06:44:15.633Z,69.01
2018-06-30T06:46:45.285Z,69.44
2018-06-30T06:49:14.886Z,68.16
2018-06-30T06:51:44.509Z,68.78
2018-06-30T06:54:14.141Z,69.57
2018-06-30T06:56:43.722Z,68.31
2018-06-30T06:59:13.409Z,68.99
2018-06-30T07:01:43.022Z,68.41
2018-06-30T07:04:12.645Z,68.42
2018-06-30T07:06:42.231Z,68.39
2018-06-30T07:09:12.609Z,68.34
2018-06-30T07:11:42.746Z,67.07
2018-06-30T07:14:12.421Z,66.55
2018-06-30T07:16:42.042Z,66.64
2018-06-30T07:19:11.706Z,66.56
2018-06-30T07:21:41.474Z,67.07
2018-06-30T07:24:11.150Z,66.50
2018-06-30T07:26:40.782Z,65.30
2018-06-30T07:29:10.418Z,65.43
2018-06-30T07:31:40.062Z,65.11
2018-06-30T07:34:09.783Z,64.92
2018-06-30T07:36:39.394Z,64.49
2018-06-30T07:39:10.531Z,64.90
2018-06-30T07:41:41.274Z,64.21
2018-06-30T07:44:10.971Z,64.32
2018-06-30T07:46:40.642Z,63.75
2018-06-30T07:49:10.314Z,63.70
2018-06-30T07:51:39.934Z,63.19
2018-06-30T07:54:09.610Z,63.06
2018-06-30T07:56:39.249Z,62.38
2018-06-30T07:59:08.849Z,62.44
2018-06-30T08:01:38.509Z,62.17
2018-06-30T08:04:08.190Z,62.52
2018-06-30T08:06:37.818Z,62.84
2018-06-30T08:09:09.988Z,61.86
2018-06-30T08:11:40.530Z,62.82
2018-06-30T08:14:10.390Z,61.06
2018-06-30T08:16:40.066Z,60.67
2018-06-30T08:19:10.066Z,60.77
2018-06-30T08:21:39.834Z,59.96
2018-06-30T08:24:09.670Z,59.24
2018-06-30T08:26:42.943Z,59.38
2018-06-30T08:29:12.714Z,60.38
2018-06-30T08:31:42.519Z,59.01
2018-06-30T08:34:12.195Z,58.55
2018-06-30T08:36:42.024Z,59.13
2018-06-30T08:39:13.622Z,58.14
2018-06-30T08:41:43.423Z,59.68
2018-06-30T08:44:13.070Z,59.92
2018-06-30T08:46:42.835Z,58.75
2018-06-30T08:49:12.549Z,57.72
2018-06-30T08:51:42.214Z,56.64
2018-06-30T08:54:11.929Z,56.71
2018-06-30T08:56:41.315Z,57.58
2018-06-30T08:59:11.214Z,55.76
2018-06-30T09:01:41.074Z,56.85
2018-06-30T09:04:11.095Z,55.38
2018-06-30T09:06:40.761Z,56.52
2018-06-30T09:09:11.370Z,55.78
2018-06-30T09:11:41.470Z,55.98
2018-06-30T09:14:11.269Z,55.49
2018-06-30T09:16:40.937Z,55.05
2018-06-30T09:19:10.610Z,56.08
2018-06-30T09:21:40.350Z,54.05
2018-06-30T09:24:10.215Z,53.73
2018-06-30T09:26:39.850Z,52.85
2018-06-30T09:29:09.534Z,53.64
2018-06-30T09:31:39.202Z,53.05
2018-06-30T09:34:09.085Z,53.73
2018-06-30T09:36:38.847Z,55.40
2018-06-30T09:39:10.978Z,52.17
2018-06-30T09:41:41.017Z,50.54
2018-06-30T09:44:10.698Z,51.00
2018-06-30T09:46:40.354Z,50.51
2018-06-30T09:49:10.019Z,47.63
2018-06-30T09:51:39.750Z,49.31
2018-06-30T09:54:09.464Z,49.25
2018-06-30T09:56:39.132Z,48.25
2018-06-30T09:59:08.801Z,48.75
2018-06-30T10:01:38.632Z,47.56
2018-06-30T10:04:08.265Z,47.76
2018-06-30T10:06:37.966Z,48.98
2018-06-30T10:09:10.954Z,48.79
2018-06-30T10:11:40.994Z,47.87
2018-06-30T10:14:10.713Z,47.66
2018-06-30T10:16:40.325Z,47.15
2018-06-30T10:19:09.965Z,46.33
2018-06-30T10:21:39.738Z,46.50
2018-06-30T10:24:09.444Z,45.83
2018-06-30T10:26:39.305Z,44.40
2018-06-30T10:29:08.977Z,44.06
2018-06-30T10:31:38.711Z,45.76
2018-06-30T10:34:08.355Z,43.10
2018-06-30T10:36:38.025Z,43.84
2018-06-30T10:39:11.481Z,43.61
2018-06-30T10:41:41.809Z,42.38
2018-06-30T10:44:11.146Z,43.56
2018-06-30T10:46:40.859Z,42.05
2018-06-30T10:49:10.613Z,40.63
2018-06-30T10:51:40.258Z,40.24
2018-06-30T10:54:09.962Z,39.44
2018-06-30T10:56:39.625Z,41.81
2018-06-30T10:59:09.356Z,40.36
2018-06-30T11:01:39.054Z,41.21
2018-06-30T11:04:08.838Z,38.23
2018-06-30T11:06:38.492Z,37.34
2018-06-30T11:09:11.306Z,36.16
2018-06-30T11:11:41.138Z,35.33
2018-06-30T11:14:10.834Z,37.82
2018-06-30T11:16:40.514Z,36.97
2018-06-30T11:19:10.263Z,37.58
2018-06-30T11:21:40.103Z,36.95
2018-06-30T11:24:09.905Z,36.60
2018-06-30T11:26:39.697Z,35.37
2018-06-30T11:29:09.535Z,35.01
2018-06-30T11:31:39.296Z,35.80
2018-06-30T11:34:09.066Z,36.98
2018-06-30T11:36:38.810Z,36.19
2018-06-30T11:39:12.441Z,36.26
2018-06-30T11:41:42.903Z,35.87
2018-06-30T11:44:13.007Z,34.34
2018-06-30T11:46:42.823Z,35.01
2018-06-30T11:49:12.689Z,35.75
2018-06-30T11:51:42.599Z,33.94
2018-06-30T11:54:12.431Z,32.37
2018-06-30T11:56:42.187Z,32.05
2018-06-30T11:59:11.968Z,32.39
2018-06-30T12:01:41.757Z,33.51
2018-06-30T12:04:13.231Z,33.31
2018-06-30T12:06:42.981Z,33.28
2018-06-30T12:09:12.874Z,33.48
2018-06-30T12:11:42.619Z,33.51
2018-06-30T12:14:12.443Z,32.91
2018-06-30T12:16:42.220Z,32.92
2018-06-30T12:19:13.124Z,33.94
2018-06-30T12:21:42.902Z,36.22
2018-06-30T12:24:13.514Z,33.49
2018-06-30T12:26:44.259Z,33.59
2018-06-30T12:29:14.117Z,32.56
2018-06-30T12:31:43.935Z,31.72
2018-06-30T12:34:13.751Z,31.36
2018-06-30T12:36:43.505Z,33.34
2018-06-30T12:39:13.482Z,32.14
2018-06-30T12:41:43.403Z,33.14
2018-06-30T12:44:13.335Z,32.19
2018-06-30T12:46:43.167Z,32.40
2018-06-30T12:49:12.982Z,32.23
2018-06-30T12:51:42.715Z,30.97
2018-06-30T12:54:12.629Z,29.66
2018-06-30T12:56:42.454Z,31.37
2018-06-30T12:59:12.351Z,30.80
2018-06-30T13:01:42.298Z,32.62
2018-06-30T13:04:12.042Z,30.57
2018-06-30T13:06:41.938Z,30.14
2018-06-30T13:09:14.683Z,31.98
2018-06-30T13:11:44.494Z,30.86
2018-06-30T13:14:14.310Z,30.19
2018-06-30T13:16:44.212Z,29.05
2018-06-30T13:19:14.046Z,28.74
2018-06-30T13:21:43.887Z,28.47
2018-06-30T13:24:13.646Z,29.51
2018-06-30T13:26:43.550Z,30.45
2018-06-30T13:29:13.398Z,29.28
2018-06-30T13:31:43.128Z,30.01
2018-06-30T13:34:12.909Z,28.30
2018-06-30T13:36:42.762Z,29.33
2018-06-30T13:39:15.132Z,28.81
2018-06-30T13:41:45.007Z,27.51
2018-06-30T13:44:14.903Z,29.03
2018-06-30T13:46:44.746Z,28.76
2018-06-30T13:49:14.603Z,29.16
2018-06-30T13:51:44.465Z,28.52
2018-06-30T13:54:14.254Z,29.33
2018-06-30T13:56:44.154Z,29.09
2018-06-30T13:59:14.018Z,29.10
2018-06-30T14:01:43.870Z,29.30
2018-06-30T14:04:13.704Z,29.29
2018-06-30T14:06:43.534Z,27.93
2018-06-30T14:09:13.298Z,27.46
2018-06-30T14:11:43.086Z,29.23
2018-06-30T14:14:12.830Z,27.63
2018-06-30T14:16:42.743Z,28.42
2018-06-30T14:19:12.549Z,27.94
2018-06-30T14:21:42.438Z,27.93
2018-06-30T14:24:12.210Z,26.51
2018-06-30T14:26:42.049Z,26.50
2018-06-30T14:29:11.815Z,26.64
2018-06-30T14:31:41.634Z,26.11
2018-06-30T14:34:11.506Z,27.91
2018-06-30T14:36:41.412Z,26.72
2018-06-30T14:39:13.031Z,27.41
2018-06-30T14:41:42.862Z,26.02
2018-06-30T14:44:12.731Z,26.68
2018-06-30T14:46:42.445Z,25.26
2018-06-30T14:49:12.243Z,24.44
2018-06-30T14:51:42.148Z,25.39
2018-06-30T14:54:12.018Z,24.47
2018-06-30T14:56:41.971Z,24.35
2018-06-30T14:59:11.930Z,23.85
2018-06-30T15:01:41.646Z,23.64
2018-06-30T15:04:11.542Z,26.54
2018-06-30T15:06:41.306Z,24.17
2018-06-30T15:09:14.304Z,25.42
2018-06-30T15:11:45.090Z,23.92
2018-06-30T15:14:15.504Z,23.31
2018-06-30T15:16:45.319Z,24.48
2018-06-30T15:19:15.041Z,24.31
2018-06-30T15:21:44.842Z,24.71
2018-06-30T15:24:15.973Z,24.24
2018-06-30T15:26:45.778Z,22.85
2018-06-30T15:29:15.701Z,24.25
2018-06-30T15:31:45.562Z,25.08
2018-06-30T15:34:15.559Z,23.63
2018-06-30T15:36:45.520Z,23.31
2018-06-30T15:39:15.488Z,23.74
2018-06-30T15:41:45.725Z,25.54
2018-06-30T15:44:15.468Z,23.23
2018-06-30T15:46:45.388Z,23.53
2018-06-30T15:49:15.218Z,24.00
2018-06-30T15:51:46.043Z,23.90
2018-06-30T15:54:15.834Z,24.23
2018-06-30T15:56:45.642Z,23.34
2018-06-30T15:59:15.524Z,23.43
2018-06-30T16:01:45.288Z,23.58
2018-06-30T16:04:15.071Z,23.15
2018-06-30T16:06:44.846Z,23.57
2018-06-30T16:09:14.551Z,22.73
2018-06-30T16:11:44.283Z,25.14
2018-06-30T16:14:14.171Z,23.26
2018-06-30T16:16:44.053Z,22.77
2018-06-30T16:19:13.842Z,23.42
2018-06-30T16:22:05.751Z,21.76
2018-06-30T16:24:35.514Z,22.51
2018-06-30T16:27:05.251Z,22.55
2018-06-30T16:29:35.148Z,22.31
2018-06-30T16:32:04.950Z,25.32
2018-06-30T16:34:34.929Z,23.25
2018-06-30T16:37:04.812Z,22.68
2018-06-30T16:39:34.574Z,21.85
2018-06-30T16:42:04.583Z,22.19
2018-06-30T16:44:34.315Z,22.50
2018-06-30T16:47:04.113Z,22.17
2018-06-30T16:49:33.823Z,23.19
2018-06-30T16:52:03.755Z,21.94
2018-06-30T16:54:33.474Z,22.59
2018-06-30T16:57:03.270Z,21.61
2018-06-30T16:59:33.062Z,21.87
2018-06-30T17:02:02.924Z,23.12
2018-06-30T17:04:32.777Z,22.67
2018-06-30T17:07:06.736Z,23.02
2018-06-30T17:09:36.759Z,22.12
2018-06-30T17:12:06.462Z,21.99
2018-06-30T17:14:36.155Z,21.53
2018-06-30T17:17:05.970Z,22.06
2018-06-30T17:19:35.739Z,21.85
2018-06-30T17:22:05.521Z,23.94
2018-06-30T17:24:35.301Z,21.69
2018-06-30T17:27:05.006Z,23.20
2018-06-30T17:29:34.830Z,22.49
2018-06-30T17:32:04.670Z,22.18
2018-06-30T17:34:34.653Z,23.03
2018-06-30T17:37:04.488Z,22.32
2018-06-30T17:39:34.229Z,22.61
2018-06-30T17:42:03.987Z,24.66
2018-06-30T17:44:33.755Z,22.43
2018-06-30T17:47:03.518Z,23.51
2018-06-30T17:49:33.249Z,25.01
2018-06-30T17:52:02.970Z,23.09
2018-06-30T17:54:32.699Z,22.74
2018-06-30T17:57:02.452Z,23.37
2018-06-30T17:59:32.135Z,23.86
2018-06-30T18:02:01.815Z,24.34
2018-06-30T18:04:31.521Z,24.12
2018-06-30T18:07:01.186Z,23.96
2018-06-30T18:09:30.817Z,24.25
2018-06-30T18:12:00.594Z,24.30
2018-06-30T18:14:30.318Z,24.93
2018-06-30T18:16:59.941Z,24.50
2018-06-30T18:19:29.577Z,24.34
2018-06-30T18:21:59.266Z,24.83
2018-06-30T18:24:28.914Z,24.86
2018-06-30T18:26:58.637Z,24.80
2018-06-30T18:29:28.338Z,24.59
2018-06-30T18:31:57.949Z,24.26
2018-06-30T18:34:27.742Z,24.75
2018-06-30T18:36:57.518Z,25.36
2018-06-30T18:39:27.185Z,24.74
2018-06-30T18:41:56.820Z,24.86
2018-06-30T18:44:26.570Z,25.10
2018-06-30T18:46:56.306Z,25.26
2018-06-30T18:49:26.462Z,24.21
2018-06-30T18:51:56.132Z,25.04
2018-06-30T18:54:25.797Z,25.35
2018-06-30T18:56:55.591Z,25.82
2018-06-30T18:59:25.334Z,25.83
2018-06-30T19:01:54.993Z,25.63
2018-06-30T19:04:24.694Z,26.26
2018-06-30T19:06:54.479Z,25.53
2018-06-30T19:09:24.346Z,25.84
2018-06-30T19:11:53.995Z,25.65
2018-06-30T19:14:23.738Z,26.15
2018-06-30T19:16:53.404Z,25.97
2018-06-30T19:19:23.257Z,25.68
2018-06-30T19:21:52.901Z,26.09
2018-06-30T19:24:22.599Z,26.60
2018-06-30T19:26:52.589Z,25.25
2018-06-30T19:29:22.244Z,25.66
2018-06-30T19:31:52.032Z,25.73
2018-06-30T19:34:21.789Z,25.96
2018-06-30T19:36:51.580Z,27.61
2018-06-30T19:39:21.307Z,26.50
2018-06-30T19:41:51.117Z,25.88
2018-06-30T19:44:20.883Z,25.74
2018-06-30T19:46:50.690Z,27.11
2018-06-30T19:49:20.318Z,26.96
2018-06-30T19:51:49.970Z,27.79
2018-06-30T19:54:19.765Z,28.59
2018-06-30T19:56:49.413Z,29.08
2018-06-30T19:59:19.149Z,29.88
2018-06-30T20:01:49.229Z,29.92
2018-06-30T20:04:18.871Z,30.87
2018-06-30T20:06:48.559Z,30.84
2018-06-30T20:09:18.239Z,31.92
2018-06-30T20:11:47.944Z,31.41
2018-06-30T20:14:17.667Z,31.87
2018-06-30T20:16:47.307Z,31.54
2018-06-30T20:19:16.939Z,32.43
2018-06-30T20:21:46.992Z,32.41
2018-06-30T20:24:16.859Z,33.32
2018-06-30T20:26:46.548Z,32.69
2018-06-30T20:29:16.202Z,32.14
2018-06-30T20:31:46.032Z,33.50
2018-06-30T20:34:15.521Z,33.09
2018-06-30T20:36:45.190Z,33.75
2018-06-30T20:39:14.833Z,33.30
2018-06-30T20:41:44.477Z,33.28
2018-06-30T20:44:14.122Z,33.24
2018-06-30T20:46:43.758Z,33.97
2018-06-30T20:49:13.586Z,33.78
2018-06-30T20:51:43.226Z,34.08
2018-06-30T20:54:12.967Z,33.84
2018-06-30T20:56:42.558Z,33.88
2018-06-30T20:59:12.218Z,34.03
2018-06-30T21:01:42.038Z,34.82
2018-06-30T21:04:12.042Z,34.56
2018-06-30T21:06:41.694Z,34.00
2018-06-30T21:09:12.277Z,33.89
2018-06-30T21:11:41.993Z,34.41
2018-06-30T21:14:11.689Z,34.58
2018-06-30T21:16:41.311Z,34.43
2018-06-30T21:19:10.989Z,35.03
2018-06-30T21:21:40.604Z,34.60
2018-06-30T21:24:10.276Z,35.48
2018-06-30T21:26:40.010Z,34.92
2018-06-30T21:29:09.659Z,34.79
2018-06-30T21:31:39.303Z,35.59
2018-06-30T21:34:08.962Z,35.04
2018-06-30T21:36:38.692Z,35.81
2018-06-30T21:39:12.326Z,35.94
2018-06-30T21:41:42.085Z,34.89
2018-06-30T21:44:11.733Z,35.17
2018-06-30T21:46:41.335Z,36.04
2018-06-30T21:49:11.009Z,34.91
2018-06-30T21:51:40.622Z,35.40
2018-06-30T21:54:10.962Z,35.15
2018-06-30T21:56:40.688Z,36.42
2018-06-30T21:59:10.569Z,36.62
2018-06-30T22:01:41.222Z,37.79
2018-06-30T22:04:10.942Z,36.80
2018-06-30T22:06:40.603Z,36.03
2018-06-30T22:09:12.461Z,36.46
2018-06-30T22:11:42.165Z,36.29
2018-06-30T22:14:11.761Z,36.69
2018-06-30T22:16:41.478Z,36.83
2018-06-30T22:19:11.171Z,37.11
2018-06-30T22:21:40.865Z,36.38
2018-06-30T22:24:10.477Z,36.24
2018-06-30T22:26:39.756Z,37.37
2018-06-30T22:29:09.426Z,37.93
2018-06-30T22:31:39.240Z,38.48
2018-06-30T22:34:08.877Z,37.40
2018-06-30T22:36:39.618Z,38.57
2018-06-30T22:39:11.662Z,37.41
2018-06-30T22:41:41.280Z,38.19
2018-06-30T22:44:10.907Z,38.75
2018-06-30T22:46:40.682Z,39.04
2018-06-30T22:49:10.341Z,39.14
2018-06-30T22:51:39.942Z,38.84
2018-06-30T22:54:09.590Z,38.95
2018-06-30T22:56:39.245Z,39.62
2018-06-30T22:59:08.839Z,38.75
2018-06-30T23:01:38.483Z,39.00
2018-06-30T23:04:08.165Z,38.81
2018-06-30T23:06:37.802Z,39.26
2018-06-30T23:09:10.294Z,38.79
2018-06-30T23:11:39.925Z,39.16
2018-06-30T23:14:09.582Z,39.41
2018-06-30T23:16:39.709Z,38.52
2018-06-30T23:19:09.310Z,38.63
2018-06-30T23:21:39.081Z,38.96
2018-06-30T23:24:08.714Z,38.72
2018-06-30T23:26:38.330Z,38.96
2018-06-30T23:29:08.010Z,38.02
2018-06-30T23:31:37.686Z,38.13
2018-06-30T23:34:07.338Z,37.85
2018-06-30T23:36:37.082Z,38.78
2018-06-30T23:39:10.454Z,38.86
2018-06-30T23:41:40.338Z,38.88
2018-06-30T23:44:09.945Z,38.63
2018-06-30T23:46:39.623Z,38.41
2018-06-30T23:49:09.246Z,38.81
2018-06-30T23:51:38.903Z,39.03
2018-06-30T23:54:08.620Z,39.18
2018-06-30T23:56:38.246Z,38.59
2018-06-30T23:59:22.170Z,39.07
